createdAt,value
2019-04-01T07:34:31.174Z,94.90
2019-04-01T07:37:01.586Z,95.10
2019-04-01T07:39:31.894Z,93.60
2019-04-01T07:42:02.396Z,93.40
2019-04-01T07:44:32.784Z,93.20
2019-04-01T07:47:03.190Z,93.20
2019-04-01T07:49:35.504Z,93.30
2019-04-01T07:52:05.849Z,92.70
2019-04-01T07:54:36.175Z,92.80
2019-04-01T07:57:06.514Z,92.90
2019-04-01T07:59:37.096Z,92.90
2019-04-01T08:02:07.440Z,92.90
2019-04-01T08:04:38.536Z,92.50
2019-04-01T08:07:08.956Z,92.50
2019-04-01T08:09:39.590Z,92.20
2019-04-01T08:12:09.995Z,91.80
2019-04-01T08:14:40.444Z,91.80
2019-04-01T08:17:13.312Z,91.90
2019-04-01T08:19:46.528Z,91.90
2019-04-01T08:22:17.059Z,91.80
2019-04-01T08:24:47.316Z,91.50
2019-04-01T08:27:17.884Z,91.30
2019-04-01T08:29:48.352Z,90.90
2019-04-01T08:32:18.905Z,90.80
2019-04-01T08:34:53.207Z,90.50
2019-04-01T08:37:23.843Z,90.80
2019-04-01T08:39:54.453Z,90.80
2019-04-01T08:42:25.046Z,90.80
2019-04-01T08:44:55.531Z,90.40
2019-04-01T08:47:26.956Z,90.40
2019-04-01T08:49:57.351Z,90.40
2019-04-01T08:52:27.860Z,90.80
2019-04-01T08:54:58.378Z,90.10
2019-04-01T08:57:28.945Z,89.30
2019-04-01T09:00:00.379Z,88.10
2019-04-01T09:02:30.954Z,89.20
2019-04-01T09:05:01.473Z,88.80
2019-04-01T09:07:31.818Z,88.30
2019-04-01T09:10:04.783Z,89.00
2019-04-01T09:12:38.672Z,88.70
2019-04-01T09:15:09.313Z,87.60
2019-04-01T09:17:40.558Z,86.80
2019-04-01T09:20:11.564Z,87.40
2019-04-01T09:22:42.180Z,87.30
2019-04-01T09:25:12.655Z,86.90
2019-04-01T09:27:43.128Z,86.90
2019-04-01T09:30:13.951Z,86.10
2019-04-01T09:32:44.751Z,85.80
2019-04-01T09:35:15.901Z,86.10
2019-04-01T09:37:46.498Z,86.40
2019-04-01T09:40:18.228Z,85.10
2019-04-01T09:42:48.739Z,84.30
2019-04-01T09:45:19.373Z,85.10
2019-04-01T09:47:49.692Z,85.10
2019-04-01T09:50:20.079Z,84.20
2019-04-01T09:52:50.491Z,83.80
2019-04-01T09:55:20.889Z,84.20
2019-04-01T09:57:51.347Z,83.20
2019-04-01T10:00:21.836Z,83.80
2019-04-01T10:02:52.410Z,83.40
2019-04-01T10:05:22.718Z,83.50
2019-04-01T10:07:53.013Z,83.50
2019-04-01T10:10:23.386Z,83.50
2019-04-01T10:12:53.767Z,83.50
2019-04-01T10:15:24.199Z,83.50
2019-04-01T10:17:54.815Z,83.20
2019-04-01T10:20:25.067Z,83.60
2019-04-01T10:22:55.393Z,82.70
2019-04-01T10:25:28.000Z,82.60
2019-04-01T10:28:01.364Z,82.60
2019-04-01T10:30:31.675Z,82.60
2019-04-01T10:33:02.675Z,82.50
2019-04-01T10:35:33.475Z,83.20
2019-04-01T10:38:04.070Z,86.00
2019-04-01T10:40:34.550Z,88.00
2019-04-01T10:43:05.398Z,84.30
2019-04-01T10:45:35.827Z,85.80
2019-04-01T10:48:06.488Z,90.00
2019-04-01T10:50:36.856Z,83.00
2019-04-01T10:53:07.288Z,85.40
2019-04-01T10:55:37.612Z,86.20
2019-04-01T10:58:08.551Z,84.30
2019-04-01T11:00:39.036Z,83.90
2019-04-01T11:03:09.731Z,82.60
2019-04-01T11:05:40.162Z,83.30
2019-04-01T11:08:11.975Z,83.10
2019-04-01T11:10:42.483Z,84.40
2019-04-01T11:13:12.908Z,84.10
2019-04-01T11:15:44.624Z,82.60
2019-04-01T11:18:15.321Z,83.10
2019-04-01T11:20:45.666Z,83.70
2019-04-01T11:23:16.532Z,83.40
2019-04-01T11:25:46.876Z,82.70
2019-04-01T11:28:17.276Z,82.40
2019-04-01T11:30:47.832Z,82.00
2019-04-01T11:33:18.352Z,82.50
2019-04-01T11:35:48.780Z,81.30
2019-04-01T11:38:19.203Z,82.50
2019-04-01T11:40:49.696Z,81.50
2019-04-01T11:43:20.180Z,81.80
2019-04-01T11:45:50.825Z,81.50
2019-04-01T11:48:21.390Z,81.30
2019-04-01T11:50:51.992Z,81.50
2019-04-01T11:53:23.903Z,81.70
2019-04-01T11:55:54.381Z,81.50
2019-04-01T11:58:24.761Z,81.00
2019-04-01T12:00:55.262Z,81.10
2019-04-01T12:03:25.642Z,81.40
2019-04-01T12:05:56.129Z,81.40
2019-04-01T12:08:26.932Z,79.90
2019-04-01T12:10:58.657Z,80.20
2019-04-01T12:13:29.256Z,80.70
2019-04-01T12:15:59.671Z,83.50
2019-04-01T12:18:30.177Z,81.50
2019-04-01T12:21:01.735Z,80.80
2019-04-01T12:23:32.114Z,81.20
2019-04-01T12:26:14.526Z,81.40
2019-04-01T12:28:36.577Z,80.80
2019-04-01T12:31:06.824Z,78.90
2019-04-01T12:33:37.317Z,78.70
2019-04-01T12:36:11.472Z,79.80
2019-04-01T12:38:40.301Z,78.20
2019-04-01T12:41:10.811Z,78.50
2019-04-01T12:43:41.310Z,77.90
2019-04-01T12:46:11.835Z,78.40
2019-04-01T12:48:42.249Z,79.20
2019-04-01T12:51:12.740Z,78.10
2019-04-01T12:53:43.238Z,77.80
2019-04-01T12:56:13.797Z,78.30
2019-04-01T12:58:44.323Z,77.60
2019-04-01T13:01:14.894Z,77.20
2019-04-01T13:03:45.195Z,76.90
2019-04-01T13:06:18.795Z,76.90
2019-04-01T13:08:49.411Z,75.80
2019-04-01T13:11:27.483Z,75.40
2019-04-01T13:13:58.141Z,73.90
2019-04-01T13:16:28.624Z,74.90
2019-04-01T13:18:59.111Z,75.40
2019-04-01T13:21:29.687Z,73.90
2019-04-01T13:24:00.223Z,73.50
2019-04-01T13:26:31.104Z,75.20
2019-04-01T13:29:01.425Z,73.70
2019-04-01T13:31:34.811Z,73.50
2019-04-01T13:34:05.250Z,72.20
2019-04-01T13:36:35.766Z,73.60
2019-04-01T13:39:08.232Z,73.00
2019-04-01T13:41:42.612Z,73.00
2019-04-01T13:44:10.918Z,71.90
2019-04-01T13:46:42.374Z,72.40
2019-04-01T13:49:12.824Z,72.50
2019-04-01T13:51:43.904Z,70.40
2019-04-01T13:54:14.389Z,71.70
2019-04-01T13:56:44.856Z,72.10
2019-04-01T13:59:17.520Z,72.60
2019-04-01T14:01:47.257Z,71.80
2019-04-01T14:04:17.590Z,71.30
2019-04-01T14:06:48.161Z,70.30
2019-04-01T14:09:18.619Z,70.30
2019-04-01T14:11:49.133Z,69.90
2019-04-01T14:14:23.418Z,70.10
2019-04-01T14:16:53.977Z,69.20
2019-04-01T14:19:33.437Z,68.60
2019-04-01T14:22:03.931Z,68.60
2019-04-01T14:24:34.251Z,68.10
2019-04-01T14:27:04.680Z,67.20
2019-04-01T14:29:36.523Z,66.90
2019-04-01T14:32:07.123Z,65.50
2019-04-01T14:34:37.431Z,68.20
2019-04-01T14:37:09.753Z,66.30
2019-04-01T14:39:39.933Z,65.80
2019-04-01T14:42:10.369Z,64.40
2019-04-01T14:44:40.717Z,66.10
2019-04-01T14:47:11.170Z,65.10
2019-04-01T14:49:41.441Z,65.40
2019-04-01T14:52:12.073Z,66.70
2019-04-01T14:54:42.383Z,65.90
2019-04-01T14:57:12.887Z,66.40
2019-04-01T14:59:43.254Z,66.70
2019-04-01T15:02:13.682Z,66.70
2019-04-01T15:04:44.019Z,66.60
2019-04-01T15:07:18.386Z,65.80
